KVKS/VKS METAR and TAF weather

Enter ICAO airport designator
Station Type Date Time Source
KVKS METAR 2020/08/11 19:35 UTC NOAA

KVKS 111935Z AUTO VRB05G12KT 10SM CLR 34/22 A2997 RMK A01


Station Type Date Time Source
KVKS Decoded METAR 2020/08/11 19:35 UTC NOAA

Vicksburg Municipal, MS, United States (KVKS) 32-14N 090-56W
Aug 11, 2020 - 03:35 PM EDT / 2020.08.11 1935 UTC
Wind: Variable at 6 MPH (5 KT) gusting to 14 MPH (12 KT):0
Visibility: 10 mile(s):0
Sky conditions: clear
Temperature: 93 F (34 C)
Heat index: 100.0 F (37.8 C):1
Dew Point: 71 F (22 C)
Relative Humidity: 49%
Pressure (altimeter): 29.97 in. Hg (1014 hPa)
ob: KVKS 111935Z AUTO VRB05G12KT 10SM CLR 34/22 A2997 RMK A01
cycle: 19

Station Type Date Time Source
KVKS TAF UTC NOAA

Error!

Example: see airport list